KMWH/MWH METAR and TAF weather

Enter ICAO airport designator
Station Type Date Time Source
KMWH METAR 2019/02/16 00:52 UTC NOAA

KMWH 160052Z 17003KT 10SM BKN009 01/M02 A2971 RMK AO2 SLP072 T00061022


Station Type Date Time Source
KMWH Decoded METAR 2019/02/16 00:52 UTC NOAA

GRANT COUNTY AIRPORT, WA, United States (KMWH) 47-12N 119-19W 362M
Feb 15, 2019 - 07:52 PM EST / 2019.02.16 0052 UTC
Wind: from the S (170 degrees) at 3 MPH (3 KT):0
Visibility: 10 mile(s):0
Sky conditions: mostly cloudy
Temperature: 33.1 F (0.6 C)
Dew Point: 28.0 F (-2.2 C)
Relative Humidity: 81%
Pressure (altimeter): 29.71 in. Hg (1006 hPa)
ob: KMWH 160052Z 17003KT 10SM BKN009 01/M02 A2971 RMK AO2 SLP072 T00061022
cycle: 1

Station Type Date Time Source
KMWH TAF 2019/02/15 23:46 UTC NOAA

TAF
AMD KMWH 152244Z 1523/1618 24005KT P6SM SCT007 BKN019
FM160400 30004KT 3SM BR BKN003 OVC015
FM161300 36003KT 4SM BR OVC007


Example: see airport list